9TX0 weather

Houston Police Command Station Heliport
Houston, Texas, United States

Public forecast

Using degrees Fahrenheit for public forecast. Weather courtesy of forecast.io.

Closest aviation weather report (METAR) to Houston Police Command Station Heliport

Closest report is William P Hobby Airport, 2.3 nm (4.2 km) ESE. Retrieved 2020/08/03 10:53 UTC (28 minutes ago):

KHOU 031053Z 00000KT 10SM CLR 25/23 A2998 RMK AO2 SLP156 T02500228

Closest aviation forecast (TAF) to Houston Police Command Station Heliport

Closest forecast is William P Hobby Airport, 2.3 nm (4.2 km) ESE. Retrieved 2020/08/03 06:22 UTC (5 hours ago):

TAF KHOU 030520Z 0306/0406 VRB04KT P6SM FEW025 SCT250 FM031500 27005KT P6SM FEW050 SCT250 FM032100 17005KT P6SM VCTS SCT060CB SCT250 FM040100 19004KT P6SM SCT050 BKN120